Time;durP1;ratioP1;P1;durP2;ratioP2;P2;SDS_P1;SDS_P2;PMS_P1;PMS_P2;Temp;Humidity;BMP_temperature;BMP_pressure;BME280_temperature;BME280_humidity;BME280_pressure;Samples;Min_cycle;Max_cycle;Signal;HPM_P1;HPM_P2
2021/08/29 00:01:09;;;;;;;7.75;6.17;;;;;;;14.30;87.77;99971.81;1776834;80;20990;-85
2021/08/29 00:03:34;;;;;;;8.35;6.05;;;;;;;14.30;87.90;99964.34;1776406;80;20949;-85
2021/08/29 00:06:00;;;;;;;7.50;5.78;;;;;;;14.27;87.84;99961.98;1779833;80;20943;-85
2021/08/29 00:08:26;;;;;;;7.33;5.37;;;;;;;14.27;88.00;99965.96;1773700;80;21018;-85
2021/08/29 00:10:52;;;;;;;6.95;5.85;;;;;;;14.27;88.06;99962.81;1751118;82;21121;-85
2021/08/29 00:13:18;;;;;;;10.10;5.97;;;;;;;14.25;88.18;99968.77;1781577;80;21047;-85
2021/08/29 00:15:44;;;;;;;9.05;6.65;;;;;;;14.22;88.06;99965.58;1779230;80;21471;-85
2021/08/29 00:18:10;;;;;;;11.38;7.12;;;;;;;14.21;88.26;99965.20;1775000;80;21041;-85
2021/08/29 00:20:36;;;;;;;8.10;6.90;;;;;;;14.20;88.25;99964.87;1761053;80;20981;-85
2021/08/29 00:23:03;;;;;;;8.33;5.83;;;;;;;14.18;88.29;99961.05;1777413;80;21016;-85
2021/08/29 00:25:29;;;;;;;8.73;5.87;;;;;;;14.07;88.30;99942.63;1776697;80;21013;-85
2021/08/29 00:27:55;;;;;;;9.00;6.45;;;;;;;14.12;88.35;99956.31;1777244;80;20974;-85
2021/08/29 00:30:21;;;;;;;7.65;5.97;;;;;;;14.13;88.40;99957.14;1775176;80;21032;-85
2021/08/29 00:32:47;;;;;;;8.85;5.85;;;;;;;14.12;88.51;99960.78;1775302;80;20985;-85
2021/08/29 00:35:13;;;;;;;9.68;6.50;;;;;;;14.11;88.51;99951.12;1775092;80;21005;-85
2021/08/29 00:37:39;;;;;;;10.40;6.65;;;;;;;14.10;88.63;99950.79;1775029;80;21574;-85
2021/08/29 00:40:06;;;;;;;8.68;6.70;;;;;;;14.10;88.60;99950.79;1775415;81;20993;-85
2021/08/29 00:42:32;;;;;;;11.35;7.30;;;;;;;14.09;88.61;99952.61;1776512;80;20958;-85
2021/08/29 00:44:58;;;;;;;10.10;6.87;;;;;;;14.08;88.83;99945.14;1772863;80;21014;-85
2021/08/29 00:47:24;;;;;;;9.35;6.90;;;;;;;14.08;88.75;99945.14;1756013;80;21018;-85
2021/08/29 00:49:50;;;;;;;7.83;6.75;;;;;;;14.05;88.85;99945.44;1776745;80;21038;-85
2021/08/29 00:52:16;;;;;;;8.80;6.53;;;;;;;14.05;89.03;99944.59;1777108;80;21028;-85
2021/08/29 00:54:42;;;;;;;9.28;6.78;;;;;;;14.03;89.15;99945.22;1777272;80;21009;-86
2021/08/29 00:57:12;;;;;;;9.50;6.67;;;;;;;14.03;89.29;99940.75;1775195;80;21014;-85
2021/08/29 00:59:43;;;;;;;11.83;7.15;;;;;;;14.05;89.15;99945.92;1775182;80;20978;-86
2021/08/29 01:02:16;;;;;;;8.35;6.85;;;;;;;14.03;89.21;99943.89;1774559;80;20968;-86
2021/08/29 01:05:05;;;;;;;8.33;6.70;;;;;;;14.03;89.21;99945.22;1777624;80;21033;-86
2021/08/29 01:07:48;;;;;;;8.03;6.35;;;;;;;14.01;89.14;99948.49;1771782;80;21444;-87
2021/08/29 01:10:19;;;;;;;12.37;8.03;;;;;;;13.99;89.23;99950.47;1774798;80;21030;-87
2021/08/29 01:12:49;;;;;;;9.03;6.47;;;;;;;13.97;89.39;99947.11;1777252;80;21499;-87
2021/08/29 01:15:19;;;;;;;12.10;7.40;;;;;;;13.94;89.38;99945.58;1777084;80;21432;-86
2021/08/29 01:17:48;;;;;;;11.88;7.20;;;;;;;13.91;89.62;99947.19;1777447;80;21449;-86
2021/08/29 01:20:46;;;;;;;8.88;7.87;;;;;;;13.88;89.69;99942.66;1777271;80;20977;-86
2021/08/29 01:23:13;;;;;;;9.43;7.10;;;;;;;13.85;89.90;99942.44;1776126;80;21002;-86
2021/08/29 01:25:44;;;;;;;9.98;7.50;;;;;;;13.83;90.08;99947.90;1777214;80;21452;-86
2021/08/29 01:28:16;;;;;;;8.95;6.92;;;;;;;13.84;90.10;99947.41;1777094;80;21452;-86
2021/08/29 01:30:45;;;;;;;11.35;7.40;;;;;;;13.83;90.13;99943.92;1777280;80;20984;-86
2021/08/29 01:33:14;;;;;;;9.03;7.62;;;;;;;13.85;90.25;99943.77;1776837;80;20978;-86
2021/08/29 01:35:41;;;;;;;14.15;7.65;;;;;;;13.83;90.16;99946.58;1777407;80;21009;-86
2021/08/29 01:38:09;;;;;;;10.18;7.78;;;;;;;13.81;90.28;99943.70;1776742;80;20986;-86
2021/08/29 01:40:37;;;;;;;8.93;7.35;;;;;;;13.79;90.33;99941.70;1774340;81;20985;-86
2021/08/29 01:43:04;;;;;;;9.80;8.20;;;;;;;13.79;90.43;99942.54;1774317;81;20998;-86
2021/08/29 01:45:32;;;;;;;10.65;7.55;;;;;;;13.78;90.45;99946.64;1774924;80;21504;-86
2021/08/29 01:47:59;;;;;;;10.25;7.65;;;;;;;13.77;90.48;99948.95;1778664;80;21512;-86
2021/08/29 01:50:27;;;;;;;10.68;8.45;;;;;;;13.78;90.54;99946.64;1775629;80;21001;-86
2021/08/29 01:52:53;;;;;;;11.35;8.20;;;;;;;13.76;90.78;99940.17;1775072;81;21009;-86
2021/08/29 01:55:19;;;;;;;10.30;7.53;;;;;;;13.76;90.60;99941.49;1775249;80;21430;-86
2021/08/29 01:57:45;;;;;;;10.80;7.42;;;;;;;13.76;90.74;99947.29;1774676;80;20950;-86
2021/08/29 02:00:11;;;;;;;11.33;8.13;;;;;;;13.77;90.83;99951.61;1775464;80;20958;-86
2021/08/29 02:02:39;;;;;;;8.70;7.58;;;;;;;13.75;90.80;99953.55;1730475;83;21012;-86
2021/08/29 02:05:06;;;;;;;10.90;7.30;;;;;;;13.75;90.68;99956.20;1767163;80;21021;-86
2021/08/29 02:07:41;;;;;;;10.05;8.23;;;;;;;13.74;90.75;99954.53;1777237;80;21005;-86
2021/08/29 02:10:10;;;;;;;9.08;8.03;;;;;;;13.72;90.83;99947.20;1776578;80;21527;-86
2021/08/29 02:12:46;;;;;;;10.75;8.50;;;;;;;13.71;90.79;99945.04;1777189;80;20997;-86
2021/08/29 02:15:19;;;;;;;10.08;7.25;;;;;;;13.67;91.02;99946.31;1776755;80;21025;-86
2021/08/29 02:17:48;;;;;;;9.43;7.03;;;;;;;13.67;91.11;99944.15;1751220;81;21425;-86
2021/08/29 02:20:19;;;;;;;10.13;8.65;;;;;;;13.69;91.02;99946.16;1777153;80;21425;-86
2021/08/29 02:22:46;;;;;;;10.60;7.20;;;;;;;13.68;91.02;99936.53;1782017;80;20987;-86
2021/08/29 02:25:12;;;;;;;10.78;7.85;;;;;;;13.68;91.07;99941.34;1778077;80;20985;-86
2021/08/29 02:27:40;;;;;;;13.08;8.30;;;;;;;13.67;91.11;99938.84;1775423;80;21436;-86
2021/08/29 02:30:09;;;;;;;9.78;7.90;;;;;;;13.64;91.20;99930.67;1775043;80;21349;-86
2021/08/29 02:32:37;;;;;;;10.50;7.65;;;;;;;13.63;91.28;99927.69;1774946;81;21046;-86
2021/08/29 02:35:05;;;;;;;10.53;8.28;;;;;;;13.63;91.47;99934.81;1772595;80;21428;-86
2021/08/29 02:37:33;;;;;;;9.40;7.95;;;;;;;13.60;91.56;99934.59;1774608;80;21031;-86
2021/08/29 02:39:59;;;;;;;9.35;8.38;;;;;;;13.59;91.72;99940.88;1775336;80;21037;-86
2021/08/29 02:42:30;;;;;;;9.65;7.90;;;;;;;13.57;91.78;99939.69;1777008;80;20985;-86
2021/08/29 02:44:58;;;;;;;13.10;9.38;;;;;;;13.58;91.71;99942.67;1778825;80;20977;-86
2021/08/29 02:47:25;;;;;;;10.00;8.35;;;;;;;13.57;91.71;99938.84;1775038;80;20993;-86
2021/08/29 02:49:52;;;;;;;10.72;8.43;;;;;;;13.56;91.68;99934.53;1769649;80;20965;-86
2021/08/29 02:52:20;;;;;;;11.00;8.83;;;;;;;13.57;91.90;99930.90;1776314;80;20997;-86
2021/08/29 02:54:48;;;;;;;12.47;8.28;;;;;;;13.57;91.78;99931.73;1777265;80;20970;-86
2021/08/29 02:57:15;;;;;;;11.03;9.15;;;;;;;13.55;91.78;99934.16;1777147;80;20986;-86
2021/08/29 02:59:42;;;;;;;11.63;8.80;;;;;;;13.55;91.87;99931.02;1776978;80;20993;-86
2021/08/29 03:02:11;;;;;;;10.63;8.73;;;;;;;13.53;91.89;99925.53;1775476;80;21033;-86
2021/08/29 03:04:38;;;;;;;10.48;8.38;;;;;;;13.52;91.87;99926.03;1775277;81;21044;-86
2021/08/29 03:07:05;;;;;;;9.98;8.48;;;;;;;13.50;92.06;99925.32;1776644;80;21528;-86
2021/08/29 03:09:34;;;;;;;12.15;8.63;;;;;;;13.49;92.00;99921.47;1777501;80;20989;-86
2021/08/29 03:12:10;;;;;;;11.43;8.60;;;;;;;13.48;92.13;99917.98;1758084;80;21024;-86
2021/08/29 03:14:39;;;;;;;11.18;8.80;;;;;;;13.47;92.26;99918.97;1767126;81;21416;-86
2021/08/29 03:17:07;;;;;;;10.25;8.65;;;;;;;13.46;92.18;99921.74;1777104;80;20997;-86
2021/08/29 03:19:34;;;;;;;10.28;7.85;;;;;;;13.47;92.27;99917.64;1775183;80;20958;-86
2021/08/29 03:22:03;;;;;;;12.43;9.13;;;;;;;13.46;92.20;99923.07;1774731;80;21484;-86
2021/08/29 03:24:29;;;;;;;10.90;8.90;;;;;;;13.42;92.20;99919.86;1775144;80;21038;-86
2021/08/29 03:26:56;;;;;;;12.33;9.33;;;;;;;13.39;92.33;99910.86;1776309;81;21046;-86
2021/08/29 03:29:22;;;;;;;9.90;8.48;;;;;;;13.38;92.51;99910.52;1777186;80;21032;-86
2021/08/29 03:31:48;;;;;;;11.70;8.58;;;;;;;13.37;92.51;99899.59;1776783;80;21563;-86
2021/08/29 03:34:17;;;;;;;9.68;8.08;;;;;;;13.36;92.52;99900.58;1779078;80;20982;-87
2021/08/29 03:36:44;;;;;;;12.07;8.60;;;;;;;13.35;92.46;99900.20;1777303;80;21004;-86
2021/08/29 03:39:14;;;;;;;12.05;8.40;;;;;;;13.33;92.60;99888.92;1777334;80;21029;-86
2021/08/29 03:41:43;;;;;;;10.45;8.23;;;;;;;13.33;92.72;99894.22;1780623;80;20964;-87
2021/08/29 03:44:14;;;;;;;13.00;8.65;;;;;;;13.31;92.68;99893.52;1779007;80;21001;-87
2021/08/29 03:46:41;;;;;;;13.48;9.05;;;;;;;13.28;92.76;99892.47;1777284;80;20953;-87
2021/08/29 03:49:07;;;;;;;12.18;9.30;;;;;;;13.26;92.92;99887.78;1762890;80;21473;-86
2021/08/29 03:51:34;;;;;;;10.38;8.28;;;;;;;13.21;93.01;99893.48;1775086;80;20998;-86
2021/08/29 03:54:01;;;;;;;11.73;9.15;;;;;;;13.20;93.16;99890.48;1775782;80;20970;-87
2021/08/29 03:56:29;;;;;;;11.60;8.88;;;;;;;13.19;93.17;99898.06;1757960;80;21024;-87
2021/08/29 03:58:56;;;;;;;12.82;9.35;;;;;;;13.18;93.31;99896.40;1759439;80;20981;-87
2021/08/29 04:01:23;;;;;;;11.22;9.15;;;;;;;13.17;93.33;99896.55;1767387;80;20982;-87
2021/08/29 04:03:49;;;;;;;12.53;9.50;;;;;;;13.13;93.53;99896.83;1777208;80;21005;-87
2021/08/29 04:06:17;;;;;;;11.38;8.53;;;;;;;13.11;93.52;99894.80;1777123;80;21440;-87
2021/08/29 04:08:47;;;;;;;12.40;9.75;;;;;;;13.08;93.75;99892.91;1777105;80;21028;-87
2021/08/29 04:11:14;;;;;;;12.40;9.40;;;;;;;13.07;93.75;99896.55;1776894;80;20992;-87
2021/08/29 04:13:40;;;;;;;12.88;7.92;;;;;;;13.06;93.87;99892.20;1777138;80;20985;-88
2021/08/29 04:16:07;;;;;;;13.20;9.18;;;;;;;13.04;93.85;99895.49;1777695;80;21005;-87
2021/08/29 04:18:41;;;;;;;11.00;9.33;;;;;;;13.04;93.95;99896.81;1777918;80;21005;-86
2021/08/29 04:21:07;;;;;;;12.60;9.80;;;;;;;13.01;94.00;99898.41;1780455;80;21004;-87
2021/08/29 04:23:34;;;;;;;11.83;9.30;;;;;;;13.00;94.11;99894.94;1776092;80;21009;-87
2021/08/29 04:26:01;;;;;;;12.05;10.28;;;;;;;13.01;94.16;99900.57;1766502;80;21456;-86
2021/08/29 04:28:27;;;;;;;12.28;9.60;;;;;;;13.01;94.07;99897.09;1753923;81;21013;-87
2021/08/29 04:30:55;;;;;;;11.38;9.05;;;;;;;13.01;94.12;99901.89;1771748;80;21029;-87
2021/08/29 04:33:26;;;;;;;13.35;9.20;;;;;;;13.02;94.20;99903.55;1762400;80;21001;-87
2021/08/29 04:35:53;;;;;;;13.28;9.85;;;;;;;13.03;94.15;99899.95;1763888;80;21539;-86
2021/08/29 04:38:20;;;;;;;11.70;9.73;;;;;;;13.03;94.24;99905.72;1776048;80;21025;-87
2021/08/29 04:40:46;;;;;;;10.78;9.08;;;;;;;13.00;94.16;99909.99;1777493;80;21017;-88
2021/08/29 04:43:12;;;;;;;10.30;9.10;;;;;;;12.99;94.33;99905.16;1777919;80;21057;-87
2021/08/29 04:45:38;;;;;;;12.50;10.53;;;;;;;12.97;94.33;99904.47;1776638;80;21542;-88
2021/08/29 04:48:05;;;;;;;13.13;10.80;;;;;;;12.97;94.53;99906.29;1775343;80;21044;-87
2021/08/29 04:50:31;;;;;;;14.85;10.40;;;;;;;12.94;94.57;99912.69;1776416;80;20989;-87
2021/08/29 04:52:57;;;;;;;13.50;10.55;;;;;;;12.96;94.62;99914.70;1776946;80;21456;-87
2021/08/29 04:55:23;;;;;;;15.10;10.63;;;;;;;12.97;94.69;99913.74;1777271;80;20980;-87
2021/08/29 04:57:49;;;;;;;12.35;10.40;;;;;;;12.98;94.84;99911.92;1775977;80;21491;-87
2021/08/29 05:00:16;;;;;;;15.72;12.40;;;;;;;12.99;94.82;99917.07;1777680;80;21014;-87
2021/08/29 05:02:41;;;;;;;14.55;11.22;;;;;;;13.02;94.85;99915.97;1777326;80;20931;-87
2021/08/29 05:05:08;;;;;;;13.13;11.43;;;;;;;13.02;94.84;99911.50;1777473;80;20993;-88
2021/08/29 05:07:34;;;;;;;13.88;11.53;;;;;;;13.02;94.84;99918.62;1777277;80;21472;-86
2021/08/29 05:10:00;;;;;;;15.03;11.73;;;;;;;13.02;94.94;99918.13;1777692;80;20970;-87
2021/08/29 05:12:26;;;;;;;16.15;12.40;;;;;;;13.03;94.82;99918.50;1777309;80;20986;-87
2021/08/29 05:14:52;;;;;;;14.75;11.55;;;;;;;13.06;94.95;99918.23;1777462;80;21056;-87
2021/08/29 05:17:18;;;;;;;13.65;11.50;;;;;;;13.04;94.92;99914.86;1777286;81;21013;-87
2021/08/29 05:19:44;;;;;;;13.38;11.18;;;;;;;13.04;94.99;99922.81;1777648;80;21040;-87
2021/08/29 05:22:10;;;;;;;13.55;11.20;;;;;;;13.08;94.94;99922.05;1778682;80;21048;-87
2021/08/29 05:24:36;;;;;;;16.12;11.33;;;;;;;13.08;95.22;99921.55;1777401;81;21037;-87
2021/08/29 05:27:03;;;;;;;14.07;11.80;;;;;;;13.10;95.07;99928.05;1777357;80;21463;-87
2021/08/29 05:29:29;;;;;;;22.73;15.05;;;;;;;13.10;95.06;99930.22;1777420;80;20982;-87
2021/08/29 05:31:55;;;;;;;23.98;17.52;;;;;;;13.09;95.10;99924.55;1776157;80;21523;-87
2021/08/29 05:34:21;;;;;;;23.22;17.52;;;;;;;13.09;95.12;99929.84;1776797;80;21037;-87
2021/08/29 05:36:48;;;;;;;29.52;21.70;;;;;;;13.11;95.20;99928.39;1777210;80;21009;-87
2021/08/29 05:39:13;;;;;;;23.87;19.40;;;;;;;13.12;95.24;99931.39;1781269;80;21449;-87
2021/08/29 05:41:39;;;;;;;20.68;18.42;;;;;;;13.13;95.31;99928.62;1781704;80;21003;-87
2021/08/29 05:44:05;;;;;;;17.23;15.40;;;;;;;13.17;95.38;99931.83;1779524;80;21010;-87
2021/08/29 05:46:31;;;;;;;16.42;13.38;;;;;;;13.18;95.38;99933.49;1774812;80;20974;-87
2021/08/29 05:48:57;;;;;;;15.58;11.25;;;;;;;13.19;95.44;99934.32;1775257;80;21026;-87
2021/08/29 05:51:24;;;;;;;13.03;10.90;;;;;;;13.22;95.33;99935.38;1776789;80;20934;-87
2021/08/29 05:53:50;;;;;;;13.05;11.00;;;;;;;13.25;95.56;99928.51;1777439;80;20974;-87
2021/08/29 05:56:15;;;;;;;15.70;12.33;;;;;;;13.28;95.66;99935.69;1777346;80;20986;-87
2021/08/29 05:58:42;;;;;;;15.43;12.30;;;;;;;13.34;95.68;99930.33;1777109;81;21013;-87
2021/08/29 06:01:13;;;;;;;15.85;12.65;;;;;;;13.37;95.76;99926.09;1766733;80;21498;-87
2021/08/29 06:03:39;;;;;;;12.43;11.12;;;;;;;13.42;95.58;99932.28;1770604;80;20989;-87
2021/08/29 06:06:05;;;;;;;14.35;11.60;;;;;;;13.43;95.39;99938.78;1778031;80;21535;-87
2021/08/29 06:08:32;;;;;;;14.03;11.57;;;;;;;13.45;95.58;99930.68;1777376;80;21539;-87
2021/08/29 06:10:58;;;;;;;14.55;11.83;;;;;;;13.47;95.54;99929.57;1777409;80;21005;-87
2021/08/29 06:13:25;;;;;;;13.30;11.12;;;;;;;13.52;95.59;99934.44;1777819;80;21001;-87
2021/08/29 06:15:51;;;;;;;14.47;11.00;;;;;;;13.54;95.61;99929.36;1776096;80;20997;-87
2021/08/29 06:18:17;;;;;;;11.00;9.83;;;;;;;13.60;95.64;99934.59;1774383;80;21022;-87
2021/08/29 06:20:43;;;;;;;12.50;11.10;;;;;;;13.63;95.65;99923.71;1762070;80;21232;-87
2021/08/29 06:23:10;;;;;;;13.25;11.10;;;;;;;13.67;95.89;99921.12;1774847;81;20986;-87
2021/08/29 06:25:37;;;;;;;11.60;10.25;;;;;;;13.73;95.99;99919.73;1777333;80;20930;-87
2021/08/29 06:28:04;;;;;;;13.03;11.35;;;;;;;13.79;96.09;99920.49;1776689;80;20974;-87
2021/08/29 06:30:30;;;;;;;12.90;11.03;;;;;;;13.81;95.70;99925.98;1775175;80;20958;-87
2021/08/29 06:32:56;;;;;;;13.53;10.93;;;;;;;13.87;95.81;99931.70;1776049;80;20974;-87
2021/08/29 06:35:22;;;;;;;11.95;10.18;;;;;;;13.91;95.72;99927.29;1777461;80;21447;-87
2021/08/29 06:37:48;;;;;;;13.15;10.75;;;;;;;13.96;95.75;99929.04;1776952;80;21009;-87
2021/08/29 06:40:14;;;;;;;13.60;11.18;;;;;;;14.00;95.75;99925.61;1777597;80;20946;-88
2021/08/29 06:42:43;;;;;;;14.03;11.48;;;;;;;14.03;95.64;99924.83;1777189;80;21013;-87
2021/08/29 06:45:11;;;;;;;12.20;10.35;;;;;;;14.07;95.51;99928.03;1777339;80;21468;-87
2021/08/29 06:47:38;;;;;;;12.43;10.10;;;;;;;14.11;95.73;99922.77;1777238;80;20969;-88
2021/08/29 06:50:05;;;;;;;12.82;11.25;;;;;;;14.15;95.62;99924.19;1777034;80;21048;-86
2021/08/29 06:52:31;;;;;;;11.95;10.00;;;;;;;14.18;95.50;99925.23;1774987;80;21014;-83
2021/08/29 06:54:57;;;;;;;10.58;9.48;;;;;;;14.22;95.41;99921.79;1775902;80;21488;-84
2021/08/29 06:57:29;;;;;;;11.63;9.60;;;;;;;14.28;95.85;99920.72;1775095;80;21037;-83
2021/08/29 06:59:52;;;;;;;12.23;10.38;;;;;;;14.34;95.70;99917.95;1772739;80;21429;-83
2021/08/29 07:02:21;;;;;;;10.98;9.73;;;;;;;14.41;95.82;99914.22;1774674;80;20985;-84
2021/08/29 07:04:47;;;;;;;14.03;11.05;;;;;;;14.45;95.43;99912.48;1775128;80;21532;-83
2021/08/29 07:07:13;;;;;;;13.58;10.55;;;;;;;14.48;95.30;99917.99;1774315;80;21026;-83
2021/08/29 07:09:40;;;;;;;10.95;9.53;;;;;;;14.52;95.28;99910.11;1766483;81;21040;-83
2021/08/29 07:12:09;;;;;;;11.28;10.08;;;;;;;14.56;95.27;99906.17;1775865;80;21001;-83
2021/08/29 07:14:35;;;;;;;12.43;10.70;;;;;;;14.59;95.06;99915.66;1774241;80;20986;-84
2021/08/29 07:17:02;;;;;;;10.63;9.33;;;;;;;14.59;94.86;99905.05;1775258;80;20974;-83
2021/08/29 07:19:28;;;;;;;11.55;9.85;;;;;;;14.61;94.98;99903.92;1774706;80;21030;-84
2021/08/29 07:21:54;;;;;;;11.20;9.48;;;;;;;14.65;95.13;99899.14;1776554;80;20982;-84
2021/08/29 07:24:21;;;;;;;11.38;9.15;;;;;;;14.67;94.94;99893.17;1777302;80;20963;-83
2021/08/29 07:26:46;;;;;;;8.98;8.05;;;;;;;14.69;94.80;99896.53;1777022;80;21029;-83
2021/08/29 07:29:12;;;;;;;10.00;8.90;;;;;;;14.71;94.70;99903.88;1776640;80;20957;-83
2021/08/29 07:31:38;;;;;;;9.60;8.63;;;;;;;14.74;94.90;99899.56;1774941;80;21041;-83
2021/08/29 07:34:04;;;;;;;9.73;7.70;;;;;;;14.78;94.91;99900.96;1777071;80;21004;-83
2021/08/29 07:36:30;;;;;;;9.78;8.83;;;;;;;14.82;94.68;99902.83;1774619;80;20953;-83
2021/08/29 07:38:56;;;;;;;13.25;9.83;;;;;;;14.85;94.79;99901.20;1760567;80;20998;-84
2021/08/29 07:41:22;;;;;;;11.90;10.35;;;;;;;14.90;94.78;99902.41;1777133;80;21521;-84
2021/08/29 07:43:48;;;;;;;11.97;8.78;;;;;;;14.94;94.88;99897.16;1765323;80;20978;-84
2021/08/29 07:46:14;;;;;;;10.75;8.83;;;;;;;14.98;94.79;99897.19;1767848;81;21527;-84
2021/08/29 07:48:40;;;;;;;10.03;8.88;;;;;;;15.07;94.97;99894.60;1775784;80;21074;-84
2021/08/29 07:51:06;;;;;;;10.08;8.40;;;;;;;15.12;94.98;99896.33;1775272;81;21017;-84
2021/08/29 07:53:32;;;;;;;10.65;9.55;;;;;;;15.18;95.18;99889.09;1775435;80;21471;-84
2021/08/29 07:55:58;;;;;;;10.70;8.88;;;;;;;15.24;95.10;99890.64;1779964;80;21003;-84
2021/08/29 07:58:24;;;;;;;11.43;9.25;;;;;;;15.29;94.61;99892.00;1781629;80;21002;-84
2021/08/29 08:00:50;;;;;;;10.30;8.70;;;;;;;15.34;94.60;99889.23;1777740;80;20997;-84
2021/08/29 08:03:17;;;;;;;10.85;9.45;;;;;;;15.39;94.32;99891.42;1777814;80;21476;-84
2021/08/29 08:05:44;;;;;;;12.15;9.68;;;;;;;15.46;94.80;99887.16;1778329;79;21009;-85
2021/08/29 08:08:10;;;;;;;10.43;9.03;;;;;;;15.53;94.90;99887.38;1774922;80;20998;-85
2021/08/29 08:10:36;;;;;;;12.68;9.23;;;;;;;15.59;94.91;99891.59;1778202;80;21025;-84
2021/08/29 08:13:02;;;;;;;10.40;8.58;;;;;;;15.66;94.54;99891.37;1781186;80;20968;-84
2021/08/29 08:15:28;;;;;;;11.53;9.63;;;;;;;15.73;94.42;99892.92;1782651;80;21576;-83
2021/08/29 08:17:54;;;;;;;9.58;8.60;;;;;;;15.79;94.58;99898.92;1772054;80;20970;-84
2021/08/29 08:20:21;;;;;;;10.75;9.28;;;;;;;15.85;94.73;99894.31;1777405;80;21028;-84
2021/08/29 08:22:48;;;;;;;10.18;9.08;;;;;;;15.93;93.84;99892.22;1778245;79;21487;-84
2021/08/29 08:25:15;;;;;;;9.30;7.97;;;;;;;15.98;93.80;99898.39;1775963;79;20990;-85
2021/08/29 08:27:41;;;;;;;10.35;8.68;;;;;;;16.04;94.00;99896.44;1783736;79;20974;-85
2021/08/29 08:30:08;;;;;;;9.95;8.95;;;;;;;16.11;94.00;99893.48;1779757;80;20954;-84
2021/08/29 08:32:34;;;;;;;10.93;9.40;;;;;;;16.17;93.98;99894.19;1779277;79;20986;-83
2021/08/29 08:35:00;;;;;;;8.68;7.78;;;;;;;16.23;93.10;99891.40;1781655;80;21023;-87
2021/08/29 08:37:26;;;;;;;9.60;8.60;;;;;;;16.27;93.39;99892.24;1781921;80;20986;-88
2021/08/29 08:39:52;;;;;;;10.63;8.78;;;;;;;16.34;93.66;99895.94;1779360;80;20978;-87
2021/08/29 08:42:18;;;;;;;9.20;8.00;;;;;;;16.37;93.01;99890.30;1783985;79;20954;-88
2021/08/29 08:44:46;;;;;;;9.65;8.58;;;;;;;16.45;93.21;99892.66;1771107;79;21024;-88
2021/08/29 08:47:16;;;;;;;9.13;7.75;;;;;;;16.49;93.08;99884.20;1784445;79;21025;-88
2021/08/29 08:49:44;;;;;;;9.40;8.35;;;;;;;16.55;92.96;99890.69;1779271;80;21455;-88
2021/08/29 08:52:24;;;;;;;9.45;7.92;;;;;;;16.63;93.23;99884.08;1768355;80;20965;-87
2021/08/29 08:54:53;;;;;;;10.70;8.35;;;;;;;16.74;92.74;99889.60;1785180;80;20977;-87
2021/08/29 08:57:19;;;;;;;11.73;9.38;;;;;;;16.84;93.14;99887.16;1784239;80;20946;-87
2021/08/29 08:59:48;;;;;;;10.90;9.65;;;;;;;16.93;92.62;99888.53;1777335;79;21032;-87
2021/08/29 09:02:18;;;;;;;9.10;7.42;;;;;;;17.02;92.52;99880.89;1778418;79;20998;-87
2021/08/29 09:04:43;;;;;;;8.60;7.78;;;;;;;17.09;92.37;99882.73;1779231;80;21030;-87
2021/08/29 09:07:09;;;;;;;8.43;5.70;;;;;;;17.15;91.50;99885.25;1766375;80;20977;-86
2021/08/29 09:09:36;;;;;;;6.72;4.72;;;;;;;17.19;91.10;99881.75;1772961;80;21009;-86
2021/08/29 09:12:03;;;;;;;5.70;4.30;;;;;;;17.20;90.67;99878.91;1783563;80;21469;-89
2021/08/29 09:14:45;;;;;;;5.87;4.72;;;;;;;17.23;90.35;99875.08;1778936;80;21003;-88
2021/08/29 09:17:29;;;;;;;5.50;4.47;;;;;;;17.28;90.12;99874.94;1780828;80;20985;-88
2021/08/29 09:20:20;;;;;;;5.72;4.47;;;;;;;17.38;90.66;99879.28;1777430;80;20979;-88
2021/08/29 09:22:52;;;;;;;4.70;4.25;;;;;;;17.47;90.05;99865.78;1753672;80;21069;-87
2021/08/29 09:25:26;;;;;;;5.30;4.83;;;;;;;17.56;89.12;99874.59;1754070;80;21058;-87
2021/08/29 09:28:00;;;;;;;6.00;3.98;;;;;;;17.58;88.77;99867.27;1753434;81;20985;-87
2021/08/29 09:30:31;;;;;;;6.05;4.50;;;;;;;17.62;89.24;99863.25;1775203;79;21073;-87
2021/08/29 09:33:01;;;;;;;4.42;3.55;;;;;;;17.70;88.02;99865.07;1775180;80;20986;-87
2021/08/29 09:35:32;;;;;;;4.70;3.70;;;;;;;17.74;87.75;99866.42;1774965;80;20997;-87
2021/08/29 09:38:01;;;;;;;5.47;3.40;;;;;;;17.74;87.29;99871.25;1777052;80;21016;-87
2021/08/29 09:40:34;;;;;;;4.60;3.55;;;;;;;17.77;86.81;99868.79;1786549;79;21034;-87
2021/08/29 09:43:02;;;;;;;4.28;3.45;;;;;;;17.78;86.96;99871.27;1751069;82;21010;-88
2021/08/29 09:45:40;;;;;;;4.03;3.62;;;;;;;17.85;86.88;99867.94;1775920;80;21013;-87
2021/08/29 09:48:14;;;;;;;6.55;3.37;;;;;;;17.91;86.71;99868.59;1776878;80;20990;-86
2021/08/29 09:50:44;;;;;;;6.25;3.12;;;;;;;18.09;86.01;99864.37;1784826;79;21025;-86
2021/08/29 09:53:18;;;;;;;4.95;3.10;;;;;;;18.09;86.01;99864.37;1793533;79;20963;-86
2021/08/29 09:55:47;;;;;;;4.05;3.02;;;;;;;18.21;85.09;99863.01;1779964;80;21025;-87
2021/08/29 09:58:32;;;;;;;3.75;3.35;;;;;;;18.21;85.09;99863.01;1780781;79;21602;-83
2021/08/29 10:01:15;;;;;;;3.25;2.95;;;;;;;18.24;84.93;99868.83;1778951;80;20958;-80
2021/08/29 10:03:47;;;;;;;3.37;2.92;;;;;;;18.27;84.48;99861.81;1779459;80;21454;-83
2021/08/29 10:06:26;;;;;;;4.40;3.15;;;;;;;18.34;84.38;99865.96;1775953;80;20990;-85
2021/08/29 10:08:57;;;;;;;3.27;2.98;;;;;;;18.34;84.38;99865.96;1781689;79;21486;-86
2021/08/29 10:11:27;;;;;;;3.57;3.03;;;;;;;18.40;83.66;99867.12;1779723;80;20983;-86
2021/08/29 10:13:56;;;;;;;2.98;2.67;;;;;;;18.42;83.81;99860.58;1779719;80;21014;-85
2021/08/29 10:16:24;;;;;;;3.45;2.80;;;;;;;18.45;84.42;99860.23;1783280;80;20990;-84
2021/08/29 10:18:56;;;;;;;6.17;3.45;;;;;;;18.50;83.25;99862.40;1780105;80;20977;-84
2021/08/29 10:21:25;;;;;;;4.65;3.35;;;;;;;18.55;83.36;99865.88;1786251;79;20994;-83
2021/08/29 10:23:55;;;;;;;3.95;3.12;;;;;;;18.58;82.69;99859.67;1781818;80;20970;-85
2021/08/29 10:26:24;;;;;;;3.58;2.92;;;;;;;18.61;83.02;99860.66;1777544;80;20973;-84
2021/08/29 10:29:10;;;;;;;5.22;3.55;;;;;;;18.53;83.74;99839.86;1772120;80;21077;-86
2021/08/29 10:31:50;;;;;;;3.37;3.08;;;;;;;18.70;83.17;99857.45;1777141;79;21279;-85
2021/08/29 10:34:17;;;;;;;5.22;3.00;;;;;;;18.75;81.86;99852.44;1778911;79;21005;-82
2021/08/29 10:36:43;;;;;;;3.85;3.02;;;;;;;18.82;82.62;99845.88;1775386;79;21009;-84
2021/08/29 10:39:10;;;;;;;3.87;3.00;;;;;;;18.88;82.16;99848.68;1775557;80;21493;-82
2021/08/29 10:41:38;;;;;;;4.53;3.37;;;;;;;18.92;82.37;99841.14;1775316;80;20994;-80
2021/08/29 10:44:05;;;;;;;4.08;2.92;;;;;;;18.94;81.50;99843.97;1787216;79;21033;-79
2021/08/29 10:46:34;;;;;;;3.33;2.42;;;;;;;18.92;81.47;99837.98;1765695;79;20976;-78
2021/08/29 10:49:01;;;;;;;3.47;2.42;;;;;;;18.88;80.78;99835.31;1775954;80;21061;-80
2021/08/29 10:51:29;;;;;;;3.92;2.90;;;;;;;18.85;81.16;99838.84;1776924;80;21010;-81
2021/08/29 10:53:58;;;;;;;5.12;2.67;;;;;;;18.81;80.72;99826.85;1774735;80;21018;-79
2021/08/29 10:56:31;;;;;;;3.83;2.95;;;;;;;18.79;80.76;99828.86;1785061;79;21043;-81
2021/08/29 10:59:23;;;;;;;4.95;3.00;;;;;;;18.79;80.24;99829.72;1779323;79;21041;-77
2021/08/29 11:01:57;;;;;;;3.45;3.08;;;;;;;18.77;80.77;99834.39;1776906;80;21001;-82
2021/08/29 11:04:38;;;;;;;6.15;3.92;;;;;;;18.77;80.79;99830.38;1779790;80;20967;-81
2021/08/29 11:07:06;;;;;;;5.72;3.27;;;;;;;18.78;80.51;99833.37;1779368;79;20967;-79
2021/08/29 11:09:38;;;;;;;3.15;2.85;;;;;;;18.82;80.25;99832.52;1787947;79;21034;-79
2021/08/29 11:12:15;;;;;;;2.67;2.47;;;;;;;18.82;79.77;99833.37;1776370;79;21112;-85
2021/08/29 11:14:47;;;;;;;3.95;2.80;;;;;;;18.82;79.64;99832.52;1771888;80;20994;-84
2021/08/29 11:17:29;;;;;;;3.40;2.87;;;;;;;18.81;79.44;99826.34;1779334;80;21031;-81
2021/08/29 11:20:05;;;;;;;;;;;;;;;18.83;79.65;99822.17;1793918;79;20997;-80
2021/08/29 11:22:44;;;;;;;3.52;2.58;;;;;;;18.85;79.95;99824.97;1765951;80;20148;-83
2021/08/29 11:25:15;;;;;;;4.65;3.00;;;;;;;18.87;79.85;99824.81;1775133;80;21464;-85
2021/08/29 11:27:57;;;;;;;3.17;2.80;;;;;;;18.88;79.92;99825.13;1777182;79;21028;-82
2021/08/29 11:30:38;;;;;;;2.52;2.08;;;;;;;18.92;80.30;99821.95;1782317;79;21078;-82
2021/08/29 11:33:11;;;;;;;4.25;3.27;;;;;;;18.98;79.76;99823.88;1761606;79;21003;-81